createdAt,value
2023-12-14T00:01:47.663Z,56.54
2023-12-14T00:04:15.872Z,56.32
2023-12-14T00:06:43.966Z,56.54
2023-12-14T00:09:11.969Z,56.87
2023-12-14T00:11:40.534Z,56.71
2023-12-14T00:14:09.597Z,56.98
2023-12-14T00:16:37.811Z,56.90
2023-12-14T00:19:06.076Z,56.67
2023-12-14T00:21:34.208Z,56.96
2023-12-14T00:24:02.304Z,56.85
2023-12-14T00:26:30.445Z,56.88
2023-12-14T00:29:01.673Z,56.79
2023-12-14T00:31:30.557Z,56.62
2023-12-14T00:33:59.048Z,56.77
2023-12-14T00:36:27.238Z,56.83
2023-12-14T00:38:56.729Z,56.61
2023-12-14T00:41:24.871Z,56.58
2023-12-14T00:43:52.963Z,56.79
2023-12-14T00:46:21.025Z,56.31
2023-12-14T00:48:49.354Z,56.45
2023-12-14T00:51:17.527Z,56.13
2023-12-14T00:53:45.955Z,55.93
2023-12-14T00:56:14.210Z,56.09
2023-12-14T00:58:42.524Z,56.14
2023-12-14T01:01:10.725Z,56.21
2023-12-14T01:03:38.766Z,56.20
2023-12-14T01:06:08.341Z,56.25
2023-12-14T01:08:36.585Z,56.26
2023-12-14T01:11:04.923Z,56.06
2023-12-14T01:13:33.025Z,56.11
2023-12-14T01:16:01.045Z,56.22
2023-12-14T01:18:29.335Z,56.34
2023-12-14T01:20:57.468Z,56.46
2023-12-14T01:23:25.453Z,56.62
2023-12-14T01:25:53.572Z,56.59
2023-12-14T01:28:21.593Z,56.64
2023-12-14T01:30:49.940Z,56.63
2023-12-14T01:33:18.714Z,56.47
2023-12-14T01:35:46.885Z,56.32
2023-12-14T01:38:15.158Z,56.53
2023-12-14T01:40:43.451Z,56.69
2023-12-14T01:43:11.898Z,56.67
2023-12-14T01:45:40.372Z,56.22
2023-12-14T01:48:08.855Z,56.53
2023-12-14T01:50:36.956Z,56.33
2023-12-14T01:53:05.257Z,56.14
2023-12-14T01:55:33.491Z,56.07
2023-12-14T01:58:01.961Z,55.91
2023-12-14T02:01:10.635Z,55.76
2023-12-14T02:03:49.925Z,55.47
2023-12-14T02:06:18.166Z,55.67
2023-12-14T02:08:47.378Z,55.43
2023-12-14T02:11:15.747Z,55.36
2023-12-14T02:13:44.243Z,55.24
2023-12-14T02:16:12.302Z,55.38
2023-12-14T02:18:40.546Z,55.32
2023-12-14T02:21:08.588Z,55.50
2023-12-14T02:23:36.814Z,55.82
2023-12-14T02:26:04.862Z,55.38
2023-12-14T02:28:32.893Z,55.38
2023-12-14T02:31:01.072Z,55.28
2023-12-14T02:33:29.240Z,54.85
2023-12-14T02:35:57.304Z,54.80
2023-12-14T02:38:25.424Z,54.78
2023-12-14T02:40:54.041Z,54.86
2023-12-14T02:43:22.221Z,54.81
2023-12-14T02:45:50.910Z,54.68
2023-12-14T02:48:18.954Z,54.71
2023-12-14T02:50:47.502Z,55.03
2023-12-14T02:53:15.546Z,54.86
2023-12-14T02:55:44.422Z,54.65
2023-12-14T02:58:12.535Z,54.97
2023-12-14T03:00:40.802Z,54.71
2023-12-14T03:03:08.954Z,54.79
2023-12-14T03:05:37.741Z,55.10
2023-12-14T03:08:05.999Z,55.13
2023-12-14T03:10:34.141Z,55.17
2023-12-14T03:13:02.372Z,55.18
2023-12-14T03:15:30.669Z,55.39
2023-12-14T03:17:58.858Z,55.65
2023-12-14T03:20:27.229Z,55.86
2023-12-14T03:22:55.484Z,55.74
2023-12-14T03:25:23.672Z,55.87
2023-12-14T03:27:51.738Z,55.76
2023-12-14T03:30:19.917Z,56.36
2023-12-14T03:32:48.049Z,56.40
2023-12-14T03:35:16.249Z,56.65
2023-12-14T03:37:44.455Z,56.90
2023-12-14T03:40:12.546Z,57.15
2023-12-14T03:42:41.106Z,57.64
2023-12-14T03:45:09.501Z,58.11
2023-12-14T03:47:37.686Z,58.46
2023-12-14T03:50:06.515Z,58.93
2023-12-14T03:52:35.283Z,59.11
2023-12-14T03:55:03.805Z,59.52
2023-12-14T03:57:31.993Z,59.98
2023-12-14T04:00:00.070Z,60.36
2023-12-14T04:02:28.301Z,60.81
2023-12-14T04:04:56.459Z,61.50
2023-12-14T04:07:25.060Z,61.51
2023-12-14T04:09:53.154Z,61.43
2023-12-14T04:12:21.412Z,61.40
2023-12-14T04:14:49.487Z,61.83
2023-12-14T04:17:17.787Z,62.09
2023-12-14T04:19:45.906Z,62.60
2023-12-14T04:22:14.069Z,62.46
2023-12-14T04:24:42.226Z,62.50
2023-12-14T04:27:10.283Z,63.22
2023-12-14T04:29:38.334Z,62.99
2023-12-14T04:32:06.787Z,63.45
2023-12-14T04:34:34.930Z,63.18
2023-12-14T04:37:03.229Z,63.49
2023-12-14T04:39:31.636Z,63.88
2023-12-14T04:41:59.851Z,63.76
2023-12-14T04:44:28.054Z,63.57
2023-12-14T04:46:56.141Z,63.68
2023-12-14T04:49:24.288Z,63.79
2023-12-14T04:51:52.308Z,63.89
2023-12-14T04:54:21.554Z,64.41
2023-12-14T04:56:49.849Z,64.16
2023-12-14T04:59:18.467Z,64.49
2023-12-14T05:01:46.712Z,64.72
2023-12-14T05:04:14.891Z,65.30
2023-12-14T05:06:43.095Z,65.28
2023-12-14T05:09:12.711Z,65.27
2023-12-14T05:11:41.565Z,65.78
2023-12-14T05:14:09.862Z,65.57
2023-12-14T05:16:38.169Z,65.24
2023-12-14T05:19:06.456Z,65.57
2023-12-14T05:21:34.529Z,65.41
2023-12-14T05:24:02.596Z,66.43
2023-12-14T05:26:36.563Z,66.47
2023-12-14T05:29:04.781Z,66.82
2023-12-14T05:31:32.890Z,66.20
2023-12-14T05:34:01.007Z,66.13
2023-12-14T05:36:29.238Z,66.10
2023-12-14T05:38:58.967Z,66.37
2023-12-14T05:41:27.731Z,66.79
2023-12-14T05:43:55.866Z,66.94
2023-12-14T05:46:24.545Z,66.34
2023-12-14T05:48:53.368Z,66.51
2023-12-14T05:51:29.391Z,66.29
2023-12-14T05:53:58.497Z,66.63
2023-12-14T05:56:27.123Z,66.70
2023-12-14T05:58:57.527Z,66.50
2023-12-14T06:01:26.796Z,67.27
2023-12-14T06:03:55.189Z,66.51
2023-12-14T06:06:25.001Z,66.78
2023-12-14T06:08:58.825Z,66.87
2023-12-14T06:11:30.105Z,68.02
2023-12-14T06:14:01.120Z,67.78
2023-12-14T06:16:32.007Z,67.54
2023-12-14T06:19:03.357Z,67.24
2023-12-14T06:21:35.314Z,67.29
2023-12-14T06:24:04.775Z,67.17
2023-12-14T06:26:33.047Z,67.61
2023-12-14T06:29:08.365Z,67.80
2023-12-14T06:31:40.209Z,67.59
2023-12-14T06:34:08.623Z,67.50
2023-12-14T06:36:50.501Z,67.37
2023-12-14T06:39:22.368Z,67.76
2023-12-14T06:41:53.234Z,68.43
2023-12-14T06:44:23.400Z,68.08
2023-12-14T06:47:00.713Z,68.04
2023-12-14T06:49:30.044Z,67.73
2023-12-14T06:51:59.391Z,68.22
2023-12-14T06:55:10.926Z,68.15
2023-12-14T07:00:56.401Z,68.38
2023-12-14T07:04:17.632Z,68.06
2023-12-14T07:07:10.242Z,74.21
2023-12-14T07:10:12.521Z,69.77
2023-12-14T07:12:45.742Z,66.98
2023-12-14T07:15:15.192Z,66.94
2023-12-14T07:17:49.937Z,66.90
2023-12-14T07:20:26.055Z,66.72
2023-12-14T07:23:06.957Z,67.15
2023-12-14T07:25:42.768Z,67.24
2023-12-14T07:28:42.767Z,67.21
2023-12-14T07:31:34.003Z,67.54
2023-12-14T07:35:47.696Z,67.74
2023-12-14T07:37:48.055Z,68.15
2023-12-14T07:40:58.164Z,68.05
2023-12-14T07:44:02.843Z,68.13
2023-12-14T07:47:18.383Z,68.32
2023-12-14T07:50:24.982Z,68.51
2023-12-14T07:53:05.890Z,68.22
2023-12-14T07:55:57.987Z,68.02
2023-12-14T07:58:40.584Z,68.68
2023-12-14T08:01:08.849Z,79.84
2023-12-14T08:03:49.717Z,72.22
2023-12-14T08:15:29.667Z,68.19
2023-12-14T08:18:25.878Z,68.09
2023-12-14T08:23:03.081Z,67.86
2023-12-14T08:26:26.350Z,68.10
2023-12-14T08:29:28.447Z,68.35
2023-12-14T08:32:40.085Z,68.57
2023-12-14T08:35:42.075Z,68.37
2023-12-14T08:38:34.092Z,68.27
2023-12-14T08:41:29.053Z,68.05
2023-12-14T08:44:23.982Z,67.76
2023-12-14T08:47:25.305Z,67.78
2023-12-14T08:57:22.514Z,67.88
2023-12-14T09:05:42.365Z,68.13
2023-12-14T09:19:04.127Z,68.94
2023-12-14T09:27:43.472Z,68.37
2023-12-14T09:30:14.524Z,67.98
2023-12-14T09:32:54.751Z,67.82
2023-12-14T09:35:25.110Z,67.22
2023-12-14T09:38:10.885Z,67.83
2023-12-14T09:41:03.337Z,68.20
2023-12-14T09:43:55.470Z,67.84
2023-12-14T09:46:54.840Z,67.45
2023-12-14T09:49:36.861Z,67.62
2023-12-14T09:52:54.276Z,67.49
2023-12-14T09:56:28.109Z,67.77
2023-12-14T10:07:16.140Z,67.73
2023-12-14T10:10:36.696Z,67.76
2023-12-14T10:13:56.293Z,67.65
2023-12-14T10:16:34.771Z,67.14
2023-12-14T10:19:04.649Z,67.26
2023-12-14T10:21:36.306Z,67.43
2023-12-14T10:24:07.382Z,67.63
2023-12-14T10:26:41.978Z,67.83
2023-12-14T10:29:13.094Z,67.84
2023-12-14T10:31:45.990Z,67.97
2023-12-14T10:34:16.717Z,68.25
2023-12-14T10:36:50.524Z,68.38
2023-12-14T10:39:23.584Z,67.81
2023-12-14T10:42:08.106Z,68.01
2023-12-14T10:45:11.858Z,68.12
2023-12-14T10:47:50.007Z,67.68
2023-12-14T10:50:22.779Z,67.74
2023-12-14T10:52:57.884Z,67.77
2023-12-14T10:55:47.191Z,67.84
2023-12-14T10:58:23.801Z,68.42
2023-12-14T11:01:03.203Z,67.96
2023-12-14T11:03:44.181Z,68.07
2023-12-14T11:07:27.529Z,68.13
2023-12-14T11:10:51.833Z,67.73
2023-12-14T11:13:45.323Z,67.53
2023-12-14T11:20:06.299Z,67.82
2023-12-14T11:22:47.000Z,68.13
2023-12-14T11:26:31.332Z,67.96
2023-12-14T11:32:26.839Z,67.96
2023-12-14T11:35:45.047Z,67.96
2023-12-14T11:41:11.999Z,67.79
2023-12-14T11:43:43.517Z,67.86
2023-12-14T11:46:13.006Z,67.77
2023-12-14T11:48:50.278Z,67.65
2023-12-14T11:51:20.069Z,67.42
2023-12-14T11:53:50.945Z,68.00
2023-12-14T11:56:22.501Z,68.00
2023-12-14T11:58:51.317Z,68.12
2023-12-14T12:01:22.547Z,68.22
2023-12-14T12:03:51.820Z,68.02
2023-12-14T12:06:24.752Z,67.97
2023-12-14T12:08:55.739Z,68.01
2023-12-14T12:11:32.277Z,67.98
2023-12-14T12:14:11.859Z,68.20
2023-12-14T12:16:40.742Z,68.59
2023-12-14T12:19:08.843Z,68.76
2023-12-14T12:21:41.183Z,69.16
2023-12-14T12:24:22.614Z,69.27
2023-12-14T12:26:57.914Z,69.68
2023-12-14T12:29:35.120Z,70.09
2023-12-14T12:32:08.834Z,70.03
2023-12-14T12:34:49.020Z,69.61
2023-12-14T12:37:19.114Z,70.38
2023-12-14T12:39:48.218Z,70.15
2023-12-14T12:42:16.318Z,70.44
2023-12-14T12:44:44.523Z,70.18
2023-12-14T12:47:12.660Z,70.56
2023-12-14T12:49:42.101Z,70.54
2023-12-14T12:52:10.674Z,70.15
2023-12-14T12:54:38.984Z,69.90
2023-12-14T12:57:07.957Z,69.81
2023-12-14T12:59:38.392Z,70.12
2023-12-14T13:02:08.142Z,69.89
2023-12-14T13:04:40.670Z,69.63
2023-12-14T13:07:08.961Z,69.58
2023-12-14T13:09:38.547Z,69.56
2023-12-14T13:12:07.165Z,69.36
2023-12-14T13:14:38.225Z,69.57
2023-12-14T13:17:24.956Z,69.43
2023-12-14T13:19:57.486Z,69.54
2023-12-14T13:22:27.467Z,69.46
2023-12-14T13:25:01.202Z,69.49
2023-12-14T13:27:29.251Z,69.44
2023-12-14T13:29:58.029Z,69.83
2023-12-14T13:32:26.180Z,69.43
2023-12-14T13:34:54.451Z,69.52
2023-12-14T13:37:22.678Z,68.68
2023-12-14T13:39:51.401Z,68.90
2023-12-14T13:42:22.492Z,68.47
2023-12-14T13:44:53.742Z,68.31
2023-12-14T13:47:22.859Z,68.49
2023-12-14T13:49:51.625Z,68.69
2023-12-14T13:52:19.945Z,68.52
2023-12-14T13:54:48.238Z,68.55
2023-12-14T13:57:16.453Z,68.40
2023-12-14T13:59:44.699Z,68.36
2023-12-14T14:02:12.935Z,68.28
2023-12-14T14:04:42.105Z,68.12
2023-12-14T14:07:10.225Z,67.54
2023-12-14T14:09:39.082Z,67.55
2023-12-14T14:12:07.569Z,67.37
2023-12-14T14:14:35.790Z,67.48
2023-12-14T14:17:03.940Z,67.29
2023-12-14T14:19:32.361Z,67.56
2023-12-14T14:22:00.499Z,67.49
2023-12-14T14:24:28.737Z,66.71
2023-12-14T14:26:57.109Z,66.88
2023-12-14T14:29:25.743Z,67.28
2023-12-14T14:31:54.084Z,67.00
2023-12-14T14:34:25.453Z,67.06
2023-12-14T14:36:53.792Z,66.92
2023-12-14T14:39:22.266Z,67.01
2023-12-14T14:41:50.451Z,67.17
2023-12-14T14:44:18.939Z,67.19
2023-12-14T14:50:05.802Z,67.60
2023-12-14T14:52:35.523Z,67.92
2023-12-14T14:55:07.220Z,68.00
2023-12-14T14:57:35.344Z,68.14
2023-12-14T15:00:04.653Z,67.65
2023-12-14T15:02:33.535Z,68.06
2023-12-14T15:05:03.126Z,68.13
2023-12-14T15:07:31.984Z,68.34
2023-12-14T15:10:00.111Z,69.02
2023-12-14T15:12:28.355Z,69.05
2023-12-14T15:14:57.861Z,68.93
2023-12-14T15:17:26.201Z,69.29
2023-12-14T15:19:54.601Z,69.61
2023-12-14T15:22:22.669Z,69.86
2023-12-14T15:24:50.812Z,70.17
2023-12-14T15:27:19.056Z,70.25
2023-12-14T15:29:47.207Z,69.93
2023-12-14T15:32:16.002Z,70.64
2023-12-14T15:34:44.315Z,70.75
2023-12-14T15:37:12.566Z,70.62
2023-12-14T15:39:40.659Z,70.10
2023-12-14T15:42:08.864Z,69.96
2023-12-14T15:44:37.036Z,69.95
2023-12-14T15:47:05.373Z,70.11
2023-12-14T15:49:33.461Z,70.07
2023-12-14T15:52:01.489Z,70.19
2023-12-14T15:54:29.522Z,70.17
2023-12-14T15:56:59.663Z,70.58
2023-12-14T15:59:28.535Z,70.52
2023-12-14T16:01:56.688Z,71.06
2023-12-14T16:04:24.841Z,70.74
2023-12-14T16:06:52.976Z,70.37
2023-12-14T16:09:21.062Z,70.40
2023-12-14T16:11:49.233Z,70.52
2023-12-14T16:14:17.783Z,70.18
2023-12-14T16:16:45.862Z,70.22
2023-12-14T16:19:14.242Z,70.32
2023-12-14T16:21:42.483Z,70.09
2023-12-14T16:24:10.480Z,70.18
2023-12-14T16:26:42.768Z,69.94
2023-12-14T16:29:10.942Z,70.34
2023-12-14T16:31:43.408Z,70.68
2023-12-14T16:34:11.998Z,69.95
2023-12-14T16:36:40.322Z,69.77
2023-12-14T16:39:11.170Z,69.06
2023-12-14T16:41:39.356Z,69.73
2023-12-14T16:44:07.536Z,69.25
2023-12-14T16:46:35.553Z,69.07
2023-12-14T16:49:03.668Z,69.18
2023-12-14T16:51:31.899Z,68.55
2023-12-14T16:54:01.517Z,68.13
2023-12-14T16:56:32.639Z,68.27
2023-12-14T16:59:01.129Z,67.83
2023-12-14T17:01:29.475Z,67.59
2023-12-14T17:03:58.157Z,67.84
2023-12-14T17:06:26.291Z,67.31
2023-12-14T17:08:54.417Z,67.74
2023-12-14T17:11:22.826Z,68.00
2023-12-14T17:13:51.003Z,67.98
2023-12-14T17:16:21.125Z,67.80
2023-12-14T17:18:49.503Z,67.38
2023-12-14T17:21:24.809Z,67.67
2023-12-14T17:23:54.457Z,67.39
2023-12-14T17:26:26.705Z,67.04
2023-12-14T17:28:57.342Z,67.07
2023-12-14T17:31:26.576Z,67.31
2023-12-14T17:33:55.233Z,67.43
2023-12-14T17:36:23.457Z,67.46
2023-12-14T17:38:53.022Z,67.57
2023-12-14T17:41:22.224Z,67.77
2023-12-14T17:43:53.202Z,67.88
2023-12-14T17:46:23.071Z,67.94
2023-12-14T17:48:51.399Z,68.11
2023-12-14T17:51:19.539Z,68.15
2023-12-14T17:53:47.592Z,67.99
2023-12-14T17:56:17.101Z,67.93
2023-12-14T17:58:46.659Z,67.89
2023-12-14T18:01:15.508Z,67.61
2023-12-14T18:03:43.734Z,67.55
2023-12-14T18:06:11.747Z,67.67
2023-12-14T18:08:39.911Z,67.87
2023-12-14T18:11:07.949Z,67.96
2023-12-14T18:13:36.116Z,67.97
2023-12-14T18:16:04.587Z,67.91
2023-12-14T18:18:32.736Z,68.34
2023-12-14T18:21:00.919Z,68.28
2023-12-14T18:23:29.028Z,68.40
2023-12-14T18:25:57.117Z,68.24
2023-12-14T18:28:27.761Z,68.13
2023-12-14T18:30:55.853Z,67.78
2023-12-14T18:33:24.055Z,67.58
2023-12-14T18:35:52.150Z,67.72
2023-12-14T18:38:20.550Z,67.29
2023-12-14T18:40:48.953Z,67.98
2023-12-14T18:43:17.387Z,68.33
2023-12-14T18:45:45.718Z,68.48
2023-12-14T18:48:14.057Z,68.40
2023-12-14T18:50:42.657Z,68.13
2023-12-14T18:53:11.927Z,68.09
2023-12-14T18:55:40.351Z,68.00
2023-12-14T18:58:08.761Z,67.78
2023-12-14T19:00:37.895Z,68.03
2023-12-14T19:03:08.114Z,67.85
2023-12-14T19:05:37.603Z,67.68
2023-12-14T19:08:05.982Z,67.52
2023-12-14T19:10:34.422Z,67.62
2023-12-14T19:13:04.242Z,67.57
2023-12-14T19:15:32.553Z,67.66
2023-12-14T19:18:01.606Z,67.94
2023-12-14T19:20:30.005Z,68.05
2023-12-14T19:23:00.088Z,67.93
2023-12-14T19:25:28.149Z,67.69
2023-12-14T19:27:56.268Z,67.78
2023-12-14T19:30:24.346Z,67.60
2023-12-14T19:32:53.785Z,67.61
2023-12-14T19:35:22.305Z,67.50
2023-12-14T19:37:50.939Z,67.67
2023-12-14T19:40:19.311Z,67.47
2023-12-14T19:42:47.495Z,67.71
2023-12-14T19:45:15.789Z,67.76
2023-12-14T19:47:44.584Z,67.92
2023-12-14T19:50:13.604Z,68.09
2023-12-14T20:01:26.876Z,68.18
2023-12-14T20:03:40.042Z,68.24
2023-12-14T20:06:19.826Z,68.28
2023-12-14T20:08:50.458Z,68.57
2023-12-14T20:11:20.147Z,68.53
2023-12-14T20:13:48.499Z,68.65
2023-12-14T20:16:16.751Z,68.51
2023-12-14T20:18:44.950Z,68.85
2023-12-14T20:21:13.081Z,69.08
2023-12-14T20:23:41.865Z,69.10
2023-12-14T20:26:12.462Z,68.98
2023-12-14T20:28:40.474Z,69.00
2023-12-14T20:31:09.571Z,69.12
2023-12-14T20:33:37.715Z,69.34
2023-12-14T20:36:06.187Z,69.67
2023-12-14T20:38:34.315Z,70.02
2023-12-14T20:41:02.410Z,69.89
2023-12-14T20:43:31.586Z,69.94
2023-12-14T20:45:59.861Z,70.37
2023-12-14T20:48:28.353Z,70.34
2023-12-14T20:50:56.419Z,70.23
2023-12-14T20:53:24.683Z,70.42
2023-12-14T20:55:53.447Z,70.71
2023-12-14T20:58:21.543Z,70.65
2023-12-14T21:00:49.612Z,70.62
2023-12-14T21:03:17.739Z,70.64
2023-12-14T21:05:48.746Z,70.60
2023-12-14T21:08:17.914Z,70.57
2023-12-14T21:10:46.388Z,70.32
2023-12-14T21:13:14.755Z,70.48
2023-12-14T21:15:42.827Z,70.72
2023-12-14T21:18:11.080Z,70.60
2023-12-14T21:20:39.321Z,71.15
2023-12-14T21:23:08.737Z,70.71
2023-12-14T21:25:41.936Z,70.62
2023-12-14T21:28:10.084Z,70.59
2023-12-14T21:30:38.275Z,70.57
2023-12-14T21:33:06.423Z,70.61
2023-12-14T21:35:34.820Z,70.81
2023-12-14T21:38:02.946Z,70.60
2023-12-14T21:40:31.014Z,70.89
2023-12-14T21:42:59.035Z,70.97
2023-12-14T21:45:27.179Z,71.18
2023-12-14T21:47:56.278Z,70.95
2023-12-14T21:50:24.381Z,70.90
2023-12-14T21:52:52.573Z,71.04
2023-12-14T21:55:20.634Z,71.05
2023-12-14T21:57:48.741Z,71.08
2023-12-14T22:00:17.444Z,70.73
2023-12-14T22:02:45.911Z,70.66
2023-12-14T22:05:14.270Z,71.01
2023-12-14T22:07:42.698Z,71.19
2023-12-14T22:10:16.835Z,71.12
2023-12-14T22:12:46.118Z,71.13
2023-12-14T22:15:15.502Z,71.25
2023-12-14T22:17:43.917Z,71.14
2023-12-14T22:20:12.623Z,71.28
2023-12-14T22:22:40.840Z,71.21
2023-12-14T22:25:09.125Z,71.65
2023-12-14T22:27:37.403Z,71.45
2023-12-14T22:30:08.863Z,71.36
2023-12-14T22:32:37.185Z,71.59
2023-12-14T22:35:05.830Z,71.69
2023-12-14T22:37:34.077Z,71.40
2023-12-14T22:40:03.299Z,71.25
2023-12-14T22:42:31.322Z,70.96
2023-12-14T22:44:59.353Z,70.58
2023-12-14T22:47:27.671Z,70.73
2023-12-14T22:49:56.046Z,70.66
2023-12-14T22:52:24.268Z,70.25
2023-12-14T22:54:52.415Z,70.09
2023-12-14T22:57:20.495Z,70.09
2023-12-14T22:59:48.625Z,70.22
2023-12-14T23:02:17.021Z,70.33
2023-12-14T23:04:45.282Z,69.61
2023-12-14T23:07:13.288Z,69.86
2023-12-14T23:09:42.261Z,69.84
2023-12-14T23:12:11.608Z,69.81
2023-12-14T23:14:39.669Z,69.64
2023-12-14T23:17:07.815Z,69.77
2023-12-14T23:19:36.107Z,69.66
2023-12-14T23:22:04.278Z,69.65
2023-12-14T23:24:32.385Z,69.72
2023-12-14T23:27:00.533Z,69.68
2023-12-14T23:29:28.747Z,69.50
2023-12-14T23:31:56.958Z,69.66
2023-12-14T23:34:25.107Z,69.55
2023-12-14T23:36:53.495Z,69.77
2023-12-14T23:39:22.212Z,69.73
2023-12-14T23:41:50.350Z,69.64
2023-12-14T23:44:18.497Z,69.77
2023-12-14T23:46:46.881Z,69.94
2023-12-14T23:49:15.064Z,69.96
2023-12-14T23:51:43.173Z,69.94
2023-12-14T23:54:11.265Z,70.01
2023-12-14T23:56:40.410Z,70.14
2023-12-14T23:59:08.453Z,70.39
